PWSweather.com
Personal Weather Stations
Station Observations
IPORTUGA89
BarosaPT

BarosaPT

Lat: 39.754028, Lon: -8.843

Elevation: 98

Station Type: Davis Vp2

High Low Average
Temperature 79.9°F26.6°C 60.6°F15.9°C 66.8°F19.3°C
Dew Point 66.2°F19.0°C 57.9°F14.4°C 61.5°F16.4°C
Winds 12.1 mph 19.5 kmh Calm Calm 4.0 mph SSW6.4 kmh SSW
Wind Gusts 21.9 mph35.2 kmh 0.9 mph1.4 kmh 7.0 mph11.3 kmh
Humidity 94% 62% 84%
Pressure 30.17 in1021.7 mb 30.05 in1017.6 mb -
Precipitation 0.00 in0.0 mm - -
Hour Temp Dew Point Humidity Winds Wind Gusts Pressure Precip Precip Rate Daily Precip Total
12:02 AM 61.5°F16.4°C 58.8°F14.9°C 91% 2.9 mph NW4.7 kmh NW 6.0 mph9.7 kmh 30.06 in1017.9 mb 0.00 in0.0 mm 0.00 in0.0 mm 0.00 in0.0 mm
12:12 AM 61.5°F16.4°C 58.8°F14.9°C 91% 2.9 mph NW4.7 kmh NW 6.9 mph11.1 kmh 30.06 in1017.9 mb 0.00 in0.0 mm 0.00 in0.0 mm 0.00 in0.0 mm
12:22 AM 61.3°F16.3°C 58.6°F14.8°C 91% 2.9 mph NW4.7 kmh NW 4.9 mph7.9 kmh 30.06 in1017.9 mb 0.00 in0.0 mm 0.00 in0.0 mm 0.00 in0.0 mm
12:32 AM 61.3°F16.3°C 58.6°F14.8°C 91% 2.0 mph NE3.2 kmh NE 4.9 mph7.9 kmh 30.07 in1018.3 mb 0.00 in0.0 mm 0.00 in0.0 mm 0.00 in0.0 mm
12:42 AM 61.3°F16.3°C 58.6°F14.8°C 91% 2.0 mph N3.2 kmh N 4.0 mph6.4 kmh 30.07 in1018.3 mb 0.00 in0.0 mm 0.00 in0.0 mm 0.00 in0.0 mm
12:52 AM 61.3°F16.3°C 58.6°F14.8°C 91% 2.0 mph NW3.2 kmh NW 4.0 mph6.4 kmh 30.07 in1018.3 mb 0.00 in0.0 mm 0.00 in0.0 mm 0.00 in0.0 mm
01:02 AM 61.3°F16.3°C 58.6°F14.8°C 91% 2.0 mph WNW3.2 kmh WNW 4.0 mph6.4 kmh 30.06 in1017.9 mb 0.00 in0.0 mm 0.00 in0.0 mm 0.00 in0.0 mm
01:13 AM 61.3°F16.3°C 58.6°F14.8°C 91% 2.9 mph WNW4.7 kmh WNW 6.0 mph9.7 kmh 30.06 in1017.9 mb 0.00 in0.0 mm 0.00 in0.0 mm 0.00 in0.0 mm
01:23 AM 61.2°F16.2°C 58.5°F14.7°C 91% 0.9 mph WNW1.4 kmh WNW 2.9 mph4.7 kmh 30.06 in1017.9 mb 0.00 in0.0 mm 0.00 in0.0 mm 0.00 in0.0 mm
01:33 AM 61.2°F16.2°C 58.5°F14.7°C 91% 2.9 mph NW4.7 kmh NW 6.9 mph11.1 kmh 30.06 in1017.9 mb 0.00 in0.0 mm 0.00 in0.0 mm 0.00 in0.0 mm
01:43 AM 61.2°F16.2°C 58.5°F14.7°C 91% 2.9 mph NNW4.7 kmh NNW 6.0 mph9.7 kmh 30.06 in1017.9 mb 0.00 in0.0 mm 0.00 in0.0 mm 0.00 in0.0 mm
01:53 AM 61.0°F16.1°C 58.3°F14.6°C 91% 0.9 mph NNW1.4 kmh NNW 4.0 mph6.4 kmh 30.06 in1017.9 mb 0.00 in0.0 mm 0.00 in0.0 mm 0.00 in0.0 mm
02:03 AM 61.0°F16.1°C 58.3°F14.6°C 91% 2.0 mph NW3.2 kmh NW 4.9 mph7.9 kmh 30.05 in1017.6 mb 0.00 in0.0 mm 0.00 in0.0 mm 0.00 in0.0 mm
02:13 AM 61.0°F16.1°C 58.3°F14.6°C 91% 2.9 mph WNW4.7 kmh WNW 6.0 mph9.7 kmh 30.06 in1017.9 mb 0.00 in0.0 mm 0.00 in0.0 mm 0.00 in0.0 mm
02:23 AM 60.8°F16.0°C 58.1°F14.5°C 91% 2.9 mph NW4.7 kmh NW 6.9 mph11.1 kmh 30.05 in1017.6 mb 0.00 in0.0 mm 0.00 in0.0 mm 0.00 in0.0 mm
02:33 AM 61.0°F16.1°C 58.3°F14.6°C 91% 2.0 mph N3.2 kmh N 4.9 mph7.9 kmh 30.05 in1017.6 mb 0.00 in0.0 mm 0.00 in0.0 mm 0.00 in0.0 mm
02:43 AM 60.8°F16.0°C 58.1°F14.5°C 91% 4.0 mph NNW6.4 kmh NNW 8.1 mph13.0 kmh 30.05 in1017.6 mb 0.00 in0.0 mm 0.00 in0.0 mm 0.00 in0.0 mm
02:53 AM 60.6°F15.9°C 57.9°F14.4°C 91% 2.0 mph NNE3.2 kmh NNE 4.0 mph6.4 kmh 30.05 in1017.6 mb 0.00 in0.0 mm 0.00 in0.0 mm 0.00 in0.0 mm
03:03 AM 60.6°F15.9°C 57.9°F14.4°C 91% 0.9 mph N1.4 kmh N 2.9 mph4.7 kmh 30.05 in1017.6 mb 0.00 in0.0 mm 0.00 in0.0 mm 0.00 in0.0 mm
03:13 AM 60.6°F15.9°C 57.9°F14.4°C 91% 2.0 mph 3.2 kmh 4.9 mph7.9 kmh 30.05 in1017.6 mb 0.00 in0.0 mm 0.00 in0.0 mm 0.00 in0.0 mm
03:23 AM 60.6°F15.9°C 57.9°F14.4°C 91% 0.9 mph N1.4 kmh N 2.9 mph4.7 kmh 30.05 in1017.6 mb 0.00 in0.0 mm 0.00 in0.0 mm 0.00 in0.0 mm
03:34 AM 60.6°F15.9°C 57.9°F14.4°C 91% 0.9 mph N1.4 kmh N 2.9 mph4.7 kmh 30.05 in1017.6 mb 0.00 in0.0 mm 0.00 in0.0 mm 0.00 in0.0 mm
03:44 AM 60.6°F15.9°C 58.3°F14.6°C 92% 2.0 mph NNE3.2 kmh NNE 4.0 mph6.4 kmh 30.05 in1017.6 mb 0.00 in0.0 mm 0.00 in0.0 mm 0.00 in0.0 mm
03:54 AM 60.8°F16.0°C 58.5°F14.7°C 92% 0.9 mph NNE1.4 kmh NNE 2.0 mph3.2 kmh 30.05 in1017.6 mb 0.00 in0.0 mm 0.00 in0.0 mm 0.00 in0.0 mm
04:04 AM 60.8°F16.0°C 58.5°F14.7°C 92% 0.9 mph NNE1.4 kmh NNE 2.9 mph4.7 kmh 30.05 in1017.6 mb 0.00 in0.0 mm 0.00 in0.0 mm 0.00 in0.0 mm
04:14 AM 61.0°F16.1°C 58.6°F14.8°C 92% 0.9 mph N1.4 kmh N 2.9 mph4.7 kmh 30.05 in1017.6 mb 0.00 in0.0 mm 0.00 in0.0 mm 0.00 in0.0 mm
04:24 AM 61.0°F16.1°C 58.6°F14.8°C 92% 0.9 mph N1.4 kmh N 2.0 mph3.2 kmh 30.06 in1017.9 mb 0.00 in0.0 mm 0.00 in0.0 mm 0.00 in0.0 mm
04:34 AM 61.0°F16.1°C 58.6°F14.8°C 92% 2.9 mph NNW4.7 kmh NNW 6.0 mph9.7 kmh 30.06 in1017.9 mb 0.00 in0.0 mm 0.00 in0.0 mm 0.00 in0.0 mm
04:44 AM 61.0°F16.1°C 58.3°F14.6°C 91% 2.0 mph NW3.2 kmh NW 4.9 mph7.9 kmh 30.06 in1017.9 mb 0.00 in0.0 mm 0.00 in0.0 mm 0.00 in0.0 mm
04:54 AM 61.0°F16.1°C 58.3°F14.6°C 91% 2.9 mph NNW4.7 kmh NNW 4.9 mph7.9 kmh 30.06 in1017.9 mb 0.00 in0.0 mm 0.00 in0.0 mm 0.00 in0.0 mm
05:04 AM 61.2°F16.2°C 58.5°F14.7°C 91% 2.9 mph 4.7 kmh 4.9 mph7.9 kmh 30.06 in1017.9 mb 0.00 in0.0 mm 0.00 in0.0 mm 0.00 in0.0 mm
05:14 AM 61.2°F16.2°C 58.5°F14.7°C 91% 2.0 mph 3.2 kmh 2.9 mph4.7 kmh 30.06 in1017.9 mb 0.00 in0.0 mm 0.00 in0.0 mm 0.00 in0.0 mm
05:24 AM 61.2°F16.2°C 58.5°F14.7°C 91% 0.9 mph 1.4 kmh 2.9 mph4.7 kmh 30.06 in1017.9 mb 0.00 in0.0 mm 0.00 in0.0 mm 0.00 in0.0 mm
05:35 AM 61.3°F16.3°C 58.6°F14.8°C 91% Calm Calm 2.0 mph3.2 kmh 30.06 in1017.9 mb 0.00 in0.0 mm 0.00 in0.0 mm 0.00 in0.0 mm
05:45 AM 61.2°F16.2°C 58.5°F14.7°C 91% 0.9 mph 1.4 kmh 2.0 mph3.2 kmh 30.06 in1017.9 mb 0.00 in0.0 mm 0.00 in0.0 mm 0.00 in0.0 mm
05:55 AM 61.3°F16.3°C 58.6°F14.8°C 91% 0.9 mph 1.4 kmh 2.0 mph3.2 kmh 30.06 in1017.9 mb 0.00 in0.0 mm 0.00 in0.0 mm 0.00 in0.0 mm
06:05 AM 61.3°F16.3°C 59.0°F15.0°C 92% Calm Calm 2.0 mph3.2 kmh 30.07 in1018.3 mb 0.00 in0.0 mm 0.00 in0.0 mm 0.00 in0.0 mm
06:15 AM 61.3°F16.3°C 59.0°F15.0°C 92% 0.9 mph 1.4 kmh 2.0 mph3.2 kmh 30.08 in1018.6 mb 0.00 in0.0 mm 0.00 in0.0 mm 0.00 in0.0 mm
06:25 AM 61.3°F16.3°C 59.0°F15.0°C 92% 0.9 mph 1.4 kmh 2.0 mph3.2 kmh 30.08 in1018.6 mb 0.00 in0.0 mm 0.00 in0.0 mm 0.00 in0.0 mm
06:35 AM 61.5°F16.4°C 59.2°F15.1°C 92% 0.9 mph 1.4 kmh 2.0 mph3.2 kmh 30.08 in1018.6 mb 0.00 in0.0 mm 0.00 in0.0 mm 0.00 in0.0 mm
06:45 AM 61.5°F16.4°C 59.2°F15.1°C 92% 0.9 mph NNE1.4 kmh NNE 2.9 mph4.7 kmh 30.09 in1019.0 mb 0.00 in0.0 mm 0.00 in0.0 mm 0.00 in0.0 mm
06:55 AM 61.7°F16.5°C 59.4°F15.2°C 92% 0.9 mph NNE1.4 kmh NNE 2.0 mph3.2 kmh 30.09 in1019.0 mb 0.00 in0.0 mm 0.00 in0.0 mm 0.00 in0.0 mm
07:05 AM 61.9°F16.6°C 59.5°F15.3°C 92% 0.9 mph NNE1.4 kmh NNE 2.9 mph4.7 kmh 30.09 in1019.0 mb 0.00 in0.0 mm 0.00 in0.0 mm 0.00 in0.0 mm
07:15 AM 61.9°F16.6°C 59.5°F15.3°C 92% 0.9 mph NNE1.4 kmh NNE 2.9 mph4.7 kmh 30.10 in1019.3 mb 0.00 in0.0 mm 0.00 in0.0 mm 0.00 in0.0 mm
07:25 AM 62.1°F16.7°C 59.7°F15.4°C 92% 0.9 mph NNE1.4 kmh NNE 2.9 mph4.7 kmh 30.10 in1019.3 mb 0.00 in0.0 mm 0.00 in0.0 mm 0.00 in0.0 mm
07:35 AM 62.1°F16.7°C 59.7°F15.4°C 92% 0.9 mph NNE1.4 kmh NNE 2.9 mph4.7 kmh 30.10 in1019.3 mb 0.00 in0.0 mm 0.00 in0.0 mm 0.00 in0.0 mm
07:45 AM 62.2°F16.8°C 60.3°F15.7°C 93% Calm Calm 2.0 mph3.2 kmh 30.10 in1019.3 mb 0.00 in0.0 mm 0.00 in0.0 mm 0.00 in0.0 mm
07:55 AM 62.4°F16.9°C 60.4°F15.8°C 93% Calm Calm 2.0 mph3.2 kmh 30.10 in1019.3 mb 0.00 in0.0 mm 0.00 in0.0 mm 0.00 in0.0 mm
08:05 AM 62.4°F16.9°C 60.4°F15.8°C 93% Calm Calm 2.0 mph3.2 kmh 30.10 in1019.3 mb 0.00 in0.0 mm 0.00 in0.0 mm 0.00 in0.0 mm
08:15 AM 62.8°F17.1°C 60.8°F16.0°C 93% 0.9 mph E1.4 kmh E 2.9 mph4.7 kmh 30.10 in1019.3 mb 0.00 in0.0 mm 0.00 in0.0 mm 0.00 in0.0 mm
08:26 AM 63.1°F17.3°C 61.2°F16.2°C 93% Calm Calm 0.9 mph1.4 kmh 30.11 in1019.6 mb 0.00 in0.0 mm 0.00 in0.0 mm 0.00 in0.0 mm
08:36 AM 63.5°F17.5°C 61.2°F16.2°C 92% 0.9 mph E1.4 kmh E 2.0 mph3.2 kmh 30.11 in1019.6 mb 0.00 in0.0 mm 0.00 in0.0 mm 0.00 in0.0 mm
08:46 AM 64.0°F17.8°C 61.7°F16.5°C 92% 0.9 mph E1.4 kmh E 2.9 mph4.7 kmh 30.11 in1019.6 mb 0.00 in0.0 mm 0.00 in0.0 mm 0.00 in0.0 mm
08:56 AM 64.6°F18.1°C 62.2°F16.8°C 92% 0.9 mph E1.4 kmh E 2.0 mph3.2 kmh 30.11 in1019.6 mb 0.00 in0.0 mm 0.00 in0.0 mm 0.00 in0.0 mm
09:06 AM 65.1°F18.4°C 62.4°F16.9°C 91% 0.9 mph E1.4 kmh E 2.9 mph4.7 kmh 30.11 in1019.6 mb 0.00 in0.0 mm 0.00 in0.0 mm 0.00 in0.0 mm
09:16 AM 66.0°F18.9°C 63.0°F17.2°C 90% Calm Calm 2.0 mph3.2 kmh 30.11 in1019.6 mb 0.00 in0.0 mm 0.00 in0.0 mm 0.00 in0.0 mm
09:26 AM 66.9°F19.4°C 63.3°F17.4°C 88% 0.9 mph E1.4 kmh E 2.9 mph4.7 kmh 30.11 in1019.6 mb 0.00 in0.0 mm 0.00 in0.0 mm 0.00 in0.0 mm
09:36 AM 68.5°F20.3°C 64.6°F18.1°C 87% 2.0 mph E3.2 kmh E 4.0 mph6.4 kmh 30.11 in1019.6 mb 0.00 in0.0 mm 0.00 in0.0 mm 0.00 in0.0 mm
09:46 AM 70.0°F21.1°C 64.6°F18.1°C 83% 2.9 mph NNE4.7 kmh NNE 11.0 mph17.7 kmh 30.11 in1019.6 mb 0.00 in0.0 mm 0.00 in0.0 mm 0.00 in0.0 mm
09:56 AM 70.2°F21.2°C 64.0°F17.8°C 81% 4.0 mph N6.4 kmh N 8.9 mph14.3 kmh 30.11 in1019.6 mb 0.00 in0.0 mm 0.00 in0.0 mm 0.00 in0.0 mm
10:16 AM 70.0°F21.1°C 63.9°F17.7°C 81% 4.0 mph N6.4 kmh N 8.1 mph13.0 kmh 30.11 in1019.6 mb 0.00 in0.0 mm 0.00 in0.0 mm 0.00 in0.0 mm
10:26 AM 70.5°F21.4°C 64.4°F18.0°C 81% 4.0 mph N6.4 kmh N 8.9 mph14.3 kmh 30.11 in1019.6 mb 0.00 in0.0 mm 0.00 in0.0 mm 0.00 in0.0 mm
10:36 AM 70.9°F21.6°C 64.4°F18.0°C 80% 4.9 mph NE7.9 kmh NE 10.1 mph16.3 kmh 30.11 in1019.6 mb 0.00 in0.0 mm 0.00 in0.0 mm 0.00 in0.0 mm
10:46 AM 71.2°F21.8°C 64.8°F18.2°C 80% 4.9 mph N7.9 kmh N 10.1 mph16.3 kmh 30.11 in1019.6 mb 0.00 in0.0 mm 0.00 in0.0 mm 0.00 in0.0 mm
10:56 AM 72.3°F22.4°C 65.1°F18.4°C 78% 4.0 mph N6.4 kmh N 10.1 mph16.3 kmh 30.11 in1019.6 mb 0.00 in0.0 mm 0.00 in0.0 mm 0.00 in0.0 mm
11:06 AM 72.9°F22.7°C 64.8°F18.2°C 76% 2.9 mph NE4.7 kmh NE 6.0 mph9.7 kmh 30.11 in1019.6 mb 0.00 in0.0 mm 0.00 in0.0 mm 0.00 in0.0 mm
11:16 AM 73.6°F23.1°C 65.1°F18.4°C 75% 4.0 mph N6.4 kmh N 8.9 mph14.3 kmh 30.11 in1019.6 mb 0.00 in0.0 mm 0.00 in0.0 mm 0.00 in0.0 mm
11:26 AM 73.8°F23.2°C 64.9°F18.3°C 74% 4.0 mph NNE6.4 kmh NNE 8.9 mph14.3 kmh 30.11 in1019.6 mb 0.00 in0.0 mm 0.00 in0.0 mm 0.00 in0.0 mm
11:36 AM 74.1°F23.4°C 65.3°F18.5°C 74% 4.9 mph WNW7.9 kmh WNW 11.0 mph17.7 kmh 30.11 in1019.6 mb 0.00 in0.0 mm 0.00 in0.0 mm 0.00 in0.0 mm
11:46 AM 75.6°F24.2°C 65.5°F18.6°C 71% 4.0 mph N6.4 kmh N 10.1 mph16.3 kmh 30.10 in1019.3 mb 0.00 in0.0 mm 0.00 in0.0 mm 0.00 in0.0 mm
11:56 AM 75.2°F24.0°C 65.5°F18.6°C 72% 4.9 mph E7.9 kmh E 12.1 mph19.5 kmh 30.10 in1019.3 mb 0.00 in0.0 mm 0.00 in0.0 mm 0.00 in0.0 mm
12:06 PM 76.1°F24.5°C 65.1°F18.4°C 69% 2.9 mph 4.7 kmh 8.9 mph14.3 kmh 30.10 in1019.3 mb 0.00 in0.0 mm 0.00 in0.0 mm 0.00 in0.0 mm
12:16 PM 76.3°F24.6°C 65.3°F18.5°C 69% 4.9 mph NW7.9 kmh NW 10.1 mph16.3 kmh 30.10 in1019.3 mb 0.00 in0.0 mm 0.00 in0.0 mm 0.00 in0.0 mm
12:26 PM 77.2°F25.1°C 65.8°F18.8°C 68% 4.9 mph N7.9 kmh N 11.0 mph17.7 kmh 30.09 in1019.0 mb 0.00 in0.0 mm 0.00 in0.0 mm 0.00 in0.0 mm
12:36 PM 76.6°F24.8°C 65.7°F18.7°C 69% 6.0 mph N9.7 kmh N 11.0 mph17.7 kmh 30.10 in1019.3 mb 0.00 in0.0 mm 0.00 in0.0 mm 0.00 in0.0 mm
12:46 PM 77.7°F25.4°C 65.5°F18.6°C 66% 6.9 mph NW11.1 kmh NW 13.0 mph20.9 kmh 30.09 in1019.0 mb 0.00 in0.0 mm 0.00 in0.0 mm 0.00 in0.0 mm
12:56 PM 78.1°F25.6°C 65.3°F18.5°C 65% 6.0 mph 9.7 kmh 11.0 mph17.7 kmh 30.09 in1019.0 mb 0.00 in0.0 mm 0.00 in0.0 mm 0.00 in0.0 mm
01:06 PM 79.0°F26.1°C 65.8°F18.8°C 64% 6.9 mph NW11.1 kmh NW 14.1 mph22.7 kmh 30.09 in1019.0 mb 0.00 in0.0 mm 0.00 in0.0 mm 0.00 in0.0 mm
01:16 PM 78.1°F25.6°C 65.3°F18.5°C 65% 8.9 mph NW14.3 kmh NW 16.1 mph25.9 kmh 30.09 in1019.0 mb 0.00 in0.0 mm 0.00 in0.0 mm 0.00 in0.0 mm
01:26 PM 78.1°F25.6°C 65.8°F18.8°C 66% 8.1 mph NW13.0 kmh NW 13.0 mph20.9 kmh 30.09 in1019.0 mb 0.00 in0.0 mm 0.00 in0.0 mm 0.00 in0.0 mm
01:36 PM 78.3°F25.7°C 66.0°F18.9°C 66% 6.0 mph N9.7 kmh N 12.1 mph19.5 kmh 30.09 in1019.0 mb 0.00 in0.0 mm 0.00 in0.0 mm 0.00 in0.0 mm
01:46 PM 78.3°F25.7°C 66.0°F18.9°C 66% 6.9 mph NNE11.1 kmh NNE 12.1 mph19.5 kmh 30.09 in1019.0 mb 0.00 in0.0 mm 0.00 in0.0 mm 0.00 in0.0 mm
01:56 PM 77.9°F25.5°C 66.0°F18.9°C 67% 8.9 mph 14.3 kmh 16.1 mph25.9 kmh 30.09 in1019.0 mb 0.00 in0.0 mm 0.00 in0.0 mm 0.00 in0.0 mm
02:06 PM 78.4°F25.8°C 66.2°F19.0°C 66% 8.1 mph NW13.0 kmh NW 15.0 mph24.1 kmh 30.09 in1019.0 mb 0.00 in0.0 mm 0.00 in0.0 mm 0.00 in0.0 mm
02:16 PM 78.6°F25.9°C 65.8°F18.8°C 65% 8.9 mph NW14.3 kmh NW 16.1 mph25.9 kmh 30.09 in1019.0 mb 0.00 in0.0 mm 0.00 in0.0 mm 0.00 in0.0 mm
02:26 PM 79.0°F26.1°C 65.8°F18.8°C 64% 6.9 mph NW11.1 kmh NW 13.0 mph20.9 kmh 30.09 in1019.0 mb 0.00 in0.0 mm 0.00 in0.0 mm 0.00 in0.0 mm
02:36 PM 79.9°F26.6°C 66.2°F19.0°C 63% 8.1 mph NNW13.0 kmh NNW 14.1 mph22.7 kmh 30.09 in1019.0 mb 0.00 in0.0 mm 0.00 in0.0 mm 0.00 in0.0 mm
02:46 PM 79.3°F26.3°C 65.7°F18.7°C 63% 8.1 mph NW13.0 kmh NW 14.1 mph22.7 kmh 30.08 in1018.6 mb 0.00 in0.0 mm 0.00 in0.0 mm 0.00 in0.0 mm
02:56 PM 79.0°F26.1°C 65.8°F18.8°C 64% 6.0 mph NNE9.7 kmh NNE 12.1 mph19.5 kmh 30.08 in1018.6 mb 0.00 in0.0 mm 0.00 in0.0 mm 0.00 in0.0 mm
03:06 PM 79.0°F26.1°C 65.3°F18.5°C 63% 8.1 mph NNW13.0 kmh NNW 14.1 mph22.7 kmh 30.08 in1018.6 mb 0.00 in0.0 mm 0.00 in0.0 mm 0.00 in0.0 mm
03:16 PM 78.6°F25.9°C 64.6°F18.1°C 62% 10.1 mph NW16.3 kmh NW 16.1 mph25.9 kmh 30.08 in1018.6 mb 0.00 in0.0 mm 0.00 in0.0 mm 0.00 in0.0 mm
03:26 PM 77.4°F25.2°C 64.8°F18.2°C 65% 10.1 mph NW16.3 kmh NW 17.0 mph27.4 kmh 30.09 in1019.0 mb 0.00 in0.0 mm 0.00 in0.0 mm 0.00 in0.0 mm
03:36 PM 76.8°F24.9°C 64.2°F17.9°C 65% 11.0 mph NNW17.7 kmh NNW 17.9 mph28.8 kmh 30.09 in1019.0 mb 0.00 in0.0 mm 0.00 in0.0 mm 0.00 in0.0 mm
03:46 PM 76.5°F24.7°C 64.2°F17.9°C 66% 10.1 mph NW16.3 kmh NW 19.0 mph30.6 kmh 30.09 in1019.0 mb 0.00 in0.0 mm 0.00 in0.0 mm 0.00 in0.0 mm
03:56 PM 75.6°F24.2°C 63.3°F17.4°C 66% 12.1 mph N19.5 kmh N 19.9 mph32.0 kmh 30.09 in1019.0 mb 0.00 in0.0 mm 0.00 in0.0 mm 0.00 in0.0 mm
04:06 PM 74.8°F23.8°C 63.5°F17.5°C 68% 11.0 mph NW17.7 kmh NW 21.9 mph35.2 kmh 30.10 in1019.3 mb 0.00 in0.0 mm 0.00 in0.0 mm 0.00 in0.0 mm
04:16 PM 74.7°F23.7°C 63.9°F17.7°C 69% 11.0 mph N17.7 kmh N 17.9 mph28.8 kmh 30.10 in1019.3 mb 0.00 in0.0 mm 0.00 in0.0 mm 0.00 in0.0 mm
04:26 PM 74.1°F23.4°C 63.7°F17.6°C 70% 11.0 mph N17.7 kmh N 19.0 mph30.6 kmh 30.10 in1019.3 mb 0.00 in0.0 mm 0.00 in0.0 mm 0.00 in0.0 mm
04:36 PM 73.9°F23.3°C 63.5°F17.5°C 70% 8.9 mph NW14.3 kmh NW 16.1 mph25.9 kmh 30.10 in1019.3 mb 0.00 in0.0 mm 0.00 in0.0 mm 0.00 in0.0 mm
04:46 PM 73.6°F23.1°C 63.7°F17.6°C 71% 8.9 mph NW14.3 kmh NW 17.0 mph27.4 kmh 30.10 in1019.3 mb 0.00 in0.0 mm 0.00 in0.0 mm 0.00 in0.0 mm
04:56 PM 72.9°F22.7°C 63.3°F17.4°C 72% 10.1 mph NW16.3 kmh NW 17.9 mph28.8 kmh 30.10 in1019.3 mb 0.00 in0.0 mm 0.00 in0.0 mm 0.00 in0.0 mm
05:06 PM 72.1°F22.3°C 63.0°F17.2°C 73% 10.1 mph N16.3 kmh N 17.9 mph28.8 kmh 30.10 in1019.3 mb 0.00 in0.0 mm 0.00 in0.0 mm 0.00 in0.0 mm
05:16 PM 72.0°F22.2°C 63.7°F17.6°C 75% 6.0 mph NW9.7 kmh NW 14.1 mph22.7 kmh 30.11 in1019.6 mb 0.00 in0.0 mm 0.00 in0.0 mm 0.00 in0.0 mm
05:26 PM 71.8°F22.1°C 63.5°F17.5°C 75% 8.1 mph NW13.0 kmh NW 13.0 mph20.9 kmh 30.11 in1019.6 mb 0.00 in0.0 mm 0.00 in0.0 mm 0.00 in0.0 mm
05:36 PM 70.9°F21.6°C 63.3°F17.4°C 77% 10.1 mph N16.3 kmh N 15.0 mph24.1 kmh 30.11 in1019.6 mb 0.00 in0.0 mm 0.00 in0.0 mm 0.00 in0.0 mm
05:46 PM 69.6°F20.9°C 62.8°F17.1°C 79% 8.1 mph WNW13.0 kmh WNW 13.0 mph20.9 kmh 30.11 in1019.6 mb 0.00 in0.0 mm 0.00 in0.0 mm 0.00 in0.0 mm
05:56 PM 68.7°F20.4°C 62.6°F17.0°C 81% 6.0 mph NNW9.7 kmh NNW 11.0 mph17.7 kmh 30.11 in1019.6 mb 0.00 in0.0 mm 0.00 in0.0 mm 0.00 in0.0 mm
06:06 PM 68.2°F20.1°C 62.8°F17.1°C 83% 4.9 mph NNW7.9 kmh NNW 10.1 mph16.3 kmh 30.11 in1019.6 mb 0.00 in0.0 mm 0.00 in0.0 mm 0.00 in0.0 mm
06:17 PM 67.6°F19.8°C 62.6°F17.0°C 84% 4.9 mph N7.9 kmh N 10.1 mph16.3 kmh 30.11 in1019.6 mb 0.00 in0.0 mm 0.00 in0.0 mm 0.00 in0.0 mm
06:27 PM 67.5°F19.7°C 62.4°F16.9°C 84% 4.0 mph NW6.4 kmh NW 8.9 mph14.3 kmh 30.11 in1019.6 mb 0.00 in0.0 mm 0.00 in0.0 mm 0.00 in0.0 mm
06:37 PM 67.3°F19.6°C 62.6°F17.0°C 85% 2.0 mph NW3.2 kmh NW 6.9 mph11.1 kmh 30.11 in1019.6 mb 0.00 in0.0 mm 0.00 in0.0 mm 0.00 in0.0 mm
06:47 PM 66.7°F19.3°C 62.4°F16.9°C 86% 4.0 mph N6.4 kmh N 4.9 mph7.9 kmh 30.11 in1019.6 mb 0.00 in0.0 mm 0.00 in0.0 mm 0.00 in0.0 mm
06:57 PM 66.6°F19.2°C 62.2°F16.8°C 86% 2.9 mph NW4.7 kmh NW 6.0 mph9.7 kmh 30.11 in1019.6 mb 0.00 in0.0 mm 0.00 in0.0 mm 0.00 in0.0 mm
07:07 PM 66.4°F19.1°C 62.4°F16.9°C 87% 4.0 mph NW6.4 kmh NW 8.1 mph13.0 kmh 30.11 in1019.6 mb 0.00 in0.0 mm 0.00 in0.0 mm 0.00 in0.0 mm
07:17 PM 66.0°F18.9°C 62.1°F16.7°C 87% 2.9 mph NW4.7 kmh NW 6.0 mph9.7 kmh 30.12 in1020.0 mb 0.00 in0.0 mm 0.00 in0.0 mm 0.00 in0.0 mm
07:27 PM 65.7°F18.7°C 62.1°F16.7°C 88% 4.9 mph NNW7.9 kmh NNW 8.9 mph14.3 kmh 30.12 in1020.0 mb 0.00 in0.0 mm 0.00 in0.0 mm 0.00 in0.0 mm
07:37 PM 65.5°F18.6°C 62.2°F16.8°C 89% 4.0 mph NNW6.4 kmh NNW 6.0 mph9.7 kmh 30.13 in1020.3 mb 0.00 in0.0 mm 0.00 in0.0 mm 0.00 in0.0 mm
07:47 PM 65.1°F18.4°C 61.9°F16.6°C 89% 2.0 mph NNW3.2 kmh NNW 4.0 mph6.4 kmh 30.13 in1020.3 mb 0.00 in0.0 mm 0.00 in0.0 mm 0.00 in0.0 mm
07:57 PM 64.9°F18.3°C 61.7°F16.5°C 89% 2.0 mph NW3.2 kmh NW 4.9 mph7.9 kmh 30.14 in1020.7 mb 0.00 in0.0 mm 0.00 in0.0 mm 0.00 in0.0 mm
08:07 PM 65.1°F18.4°C 62.1°F16.7°C 90% 2.9 mph NNE4.7 kmh NNE 8.9 mph14.3 kmh 30.14 in1020.7 mb 0.00 in0.0 mm 0.00 in0.0 mm 0.00 in0.0 mm
08:17 PM 64.9°F18.3°C 61.9°F16.6°C 90% 2.9 mph N4.7 kmh N 8.9 mph14.3 kmh 30.14 in1020.7 mb 0.00 in0.0 mm 0.00 in0.0 mm 0.00 in0.0 mm
08:27 PM 64.8°F18.2°C 61.7°F16.5°C 90% 2.9 mph NNW4.7 kmh NNW 6.9 mph11.1 kmh 30.15 in1021.0 mb 0.00 in0.0 mm 0.00 in0.0 mm 0.00 in0.0 mm
08:37 PM 64.6°F18.1°C 61.5°F16.4°C 90% 4.0 mph NW6.4 kmh NW 6.9 mph11.1 kmh 30.15 in1021.0 mb 0.00 in0.0 mm 0.00 in0.0 mm 0.00 in0.0 mm
08:47 PM 64.0°F17.8°C 61.0°F16.1°C 90% 2.9 mph WNW4.7 kmh WNW 4.9 mph7.9 kmh 30.16 in1021.3 mb 0.00 in0.0 mm 0.00 in0.0 mm 0.00 in0.0 mm
08:57 PM 63.9°F17.7°C 60.8°F16.0°C 90% 2.0 mph W3.2 kmh W 4.0 mph6.4 kmh 30.16 in1021.3 mb 0.00 in0.0 mm 0.00 in0.0 mm 0.00 in0.0 mm
09:07 PM 63.5°F17.5°C 60.8°F16.0°C 91% 2.9 mph NW4.7 kmh NW 8.1 mph13.0 kmh 30.16 in1021.3 mb 0.00 in0.0 mm 0.00 in0.0 mm 0.00 in0.0 mm
09:17 PM 63.3°F17.4°C 60.6°F15.9°C 91% 2.9 mph N4.7 kmh N 6.0 mph9.7 kmh 30.16 in1021.3 mb 0.00 in0.0 mm 0.00 in0.0 mm 0.00 in0.0 mm
09:28 PM 63.1°F17.3°C 60.4°F15.8°C 91% 2.9 mph NNW4.7 kmh NNW 6.9 mph11.1 kmh 30.17 in1021.7 mb 0.00 in0.0 mm 0.00 in0.0 mm 0.00 in0.0 mm
09:38 PM 63.0°F17.2°C 60.6°F15.9°C 92% 2.0 mph NW3.2 kmh NW 4.9 mph7.9 kmh 30.16 in1021.3 mb 0.00 in0.0 mm 0.00 in0.0 mm 0.00 in0.0 mm
09:48 PM 62.2°F16.8°C 59.5°F15.3°C 91% 0.9 mph NW1.4 kmh NW 2.9 mph4.7 kmh 30.16 in1021.3 mb 0.00 in0.0 mm 0.00 in0.0 mm 0.00 in0.0 mm
09:58 PM 61.7°F16.5°C 59.0°F15.0°C 91% Calm Calm 2.0 mph3.2 kmh 30.16 in1021.3 mb 0.00 in0.0 mm 0.00 in0.0 mm 0.00 in0.0 mm
10:08 PM 61.2°F16.2°C 58.8°F14.9°C 92% 0.9 mph NW1.4 kmh NW 2.0 mph3.2 kmh 30.17 in1021.7 mb 0.00 in0.0 mm 0.00 in0.0 mm 0.00 in0.0 mm
10:18 PM 60.8°F16.0°C 58.5°F14.7°C 92% 0.9 mph WNW1.4 kmh WNW 2.9 mph4.7 kmh 30.17 in1021.7 mb 0.00 in0.0 mm 0.00 in0.0 mm 0.00 in0.0 mm
10:28 PM 60.6°F15.9°C 58.3°F14.6°C 92% 2.0 mph WNW3.2 kmh WNW 2.9 mph4.7 kmh 30.17 in1021.7 mb 0.00 in0.0 mm 0.00 in0.0 mm 0.00 in0.0 mm
10:38 PM 60.6°F15.9°C 58.6°F14.8°C 93% 2.0 mph WNW3.2 kmh WNW 4.0 mph6.4 kmh 30.17 in1021.7 mb 0.00 in0.0 mm 0.00 in0.0 mm 0.00 in0.0 mm
10:48 PM 60.6°F15.9°C 58.6°F14.8°C 93% 2.0 mph WNW3.2 kmh WNW 2.9 mph4.7 kmh 30.17 in1021.7 mb 0.00 in0.0 mm 0.00 in0.0 mm 0.00 in0.0 mm
10:58 PM 60.8°F16.0°C 58.8°F14.9°C 93% 2.9 mph WNW4.7 kmh WNW 4.9 mph7.9 kmh 30.17 in1021.7 mb 0.00 in0.0 mm 0.00 in0.0 mm 0.00 in0.0 mm
11:08 PM 61.0°F16.1°C 59.0°F15.0°C 93% 2.9 mph NW4.7 kmh NW 4.9 mph7.9 kmh 30.17 in1021.7 mb 0.00 in0.0 mm 0.00 in0.0 mm 0.00 in0.0 mm
11:18 PM 61.0°F16.1°C 59.0°F15.0°C 93% 2.0 mph NW3.2 kmh NW 4.0 mph6.4 kmh 30.17 in1021.7 mb 0.00 in0.0 mm 0.00 in0.0 mm 0.00 in0.0 mm
11:29 PM 61.0°F16.1°C 59.2°F15.1°C 94% 2.9 mph NW4.7 kmh NW 4.9 mph7.9 kmh 30.17 in1021.7 mb 0.00 in0.0 mm 0.00 in0.0 mm 0.00 in0.0 mm
11:39 PM 61.0°F16.1°C 59.0°F15.0°C 93% 2.0 mph 3.2 kmh 4.0 mph6.4 kmh 30.16 in1021.3 mb 0.00 in0.0 mm 0.00 in0.0 mm 0.00 in0.0 mm
11:49 PM 61.0°F16.1°C 59.0°F15.0°C 93% 0.9 mph WSW1.4 kmh WSW 2.0 mph3.2 kmh 30.17 in1021.7 mb 0.00 in0.0 mm 0.00 in0.0 mm 0.00 in0.0 mm
11:59 PM 60.8°F16.0°C 59.0°F15.0°C 94% 0.9 mph N1.4 kmh N 2.9 mph4.7 kmh 30.17 in1021.7 mb 0.00 in0.0 mm 0.00 in0.0 mm 0.00 in0.0 mm